sensor_id;sensor_type;location;lat;lon;timestamp;P1;durP1;ratioP1;P2;durP2;ratioP2
32407;SDS011;18869;55.970;37.502;2023-06-14T00:00:37;12.70;;;9.47;;
32407;SDS011;18869;55.970;37.502;2023-06-14T00:03:07;23.37;;;11.37;;
32407;SDS011;18869;55.970;37.502;2023-06-14T00:05:35;17.17;;;10.87;;
32407;SDS011;18869;55.970;37.502;2023-06-14T00:08:08;19.50;;;11.47;;
32407;SDS011;18869;55.970;37.502;2023-06-14T00:10:37;21.43;;;10.33;;
32407;SDS011;18869;55.970;37.502;2023-06-14T00:13:07;21.03;;;11.60;;
32407;SDS011;18869;55.970;37.502;2023-06-14T00:15:35;19.27;;;11.53;;
32407;SDS011;18869;55.970;37.502;2023-06-14T00:18:03;20.13;;;11.53;;
32407;SDS011;18869;55.970;37.502;2023-06-14T00:20:32;19.40;;;11.33;;
32407;SDS011;18869;55.970;37.502;2023-06-14T00:23:01;22.40;;;11.17;;
32407;SDS011;18869;55.970;37.502;2023-06-14T00:25:30;17.60;;;11.17;;
32407;SDS011;18869;55.970;37.502;2023-06-14T00:27:58;23.63;;;11.93;;
32407;SDS011;18869;55.970;37.502;2023-06-14T00:30:26;17.87;;;11.30;;
32407;SDS011;18869;55.970;37.502;2023-06-14T00:32:58;19.47;;;11.90;;
32407;SDS011;18869;55.970;37.502;2023-06-14T00:35:28;17.30;;;10.90;;
32407;SDS011;18869;55.970;37.502;2023-06-14T00:37:56;20.40;;;11.70;;
32407;SDS011;18869;55.970;37.502;2023-06-14T00:40:25;17.90;;;11.13;;
32407;SDS011;18869;55.970;37.502;2023-06-14T00:42:54;19.47;;;12.33;;
32407;SDS011;18869;55.970;37.502;2023-06-14T00:45:23;21.53;;;12.77;;
32407;SDS011;18869;55.970;37.502;2023-06-14T00:47:51;21.77;;;13.50;;
32407;SDS011;18869;55.970;37.502;2023-06-14T00:50:21;23.13;;;13.17;;
32407;SDS011;18869;55.970;37.502;2023-06-14T00:52:49;25.50;;;13.07;;
32407;SDS011;18869;55.970;37.502;2023-06-14T00:55:17;22.50;;;12.77;;
32407;SDS011;18869;55.970;37.502;2023-06-14T00:57:49;20.33;;;12.23;;
32407;SDS011;18869;55.970;37.502;2023-06-14T01:00:18;18.80;;;11.87;;
32407;SDS011;18869;55.970;37.502;2023-06-14T01:02:46;21.93;;;13.30;;
32407;SDS011;18869;55.970;37.502;2023-06-14T01:05:15;19.77;;;12.60;;
32407;SDS011;18869;55.970;37.502;2023-06-14T01:07:51;21.70;;;12.97;;
32407;SDS011;18869;55.970;37.502;2023-06-14T01:10:30;19.67;;;11.97;;
32407;SDS011;18869;55.970;37.502;2023-06-14T01:13:05;22.07;;;12.23;;
32407;SDS011;18869;55.970;37.502;2023-06-14T01:15:41;21.60;;;12.10;;
32407;SDS011;18869;55.970;37.502;2023-06-14T01:18:11;19.97;;;12.57;;
32407;SDS011;18869;55.970;37.502;2023-06-14T01:20:43;21.07;;;12.93;;
32407;SDS011;18869;55.970;37.502;2023-06-14T01:23:17;20.53;;;12.33;;
32407;SDS011;18869;55.970;37.502;2023-06-14T01:25:45;24.43;;;13.13;;
32407;SDS011;18869;55.970;37.502;2023-06-14T01:28:19;19.63;;;12.57;;
32407;SDS011;18869;55.970;37.502;2023-06-14T01:30:49;23.67;;;13.13;;
32407;SDS011;18869;55.970;37.502;2023-06-14T01:33:19;19.10;;;13.57;;
32407;SDS011;18869;55.970;37.502;2023-06-14T01:35:50;21.20;;;13.30;;
32407;SDS011;18869;55.970;37.502;2023-06-14T01:38:21;19.03;;;11.93;;
32407;SDS011;18869;55.970;37.502;2023-06-14T01:40:51;19.93;;;11.90;;
32407;SDS011;18869;55.970;37.502;2023-06-14T01:43:20;19.10;;;11.07;;
32407;SDS011;18869;55.970;37.502;2023-06-14T01:45:49;16.53;;;10.57;;
32407;SDS011;18869;55.970;37.502;2023-06-14T01:48:18;15.20;;;9.17;;
32407;SDS011;18869;55.970;37.502;2023-06-14T01:50:47;11.33;;;6.77;;
32407;SDS011;18869;55.970;37.502;2023-06-14T01:53:15;10.27;;;7.47;;
32407;SDS011;18869;55.970;37.502;2023-06-14T01:55:45;8.97;;;6.27;;
32407;SDS011;18869;55.970;37.502;2023-06-14T01:58:14;6.93;;;5.37;;
32407;SDS011;18869;55.970;37.502;2023-06-14T02:00:43;10.13;;;7.17;;
32407;SDS011;18869;55.970;37.502;2023-06-14T02:03:13;11.27;;;7.83;;
32407;SDS011;18869;55.970;37.502;2023-06-14T02:05:41;13.57;;;8.27;;
32407;SDS011;18869;55.970;37.502;2023-06-14T02:08:09;14.70;;;9.00;;
32407;SDS011;18869;55.970;37.502;2023-06-14T02:10:37;14.33;;;9.03;;
32407;SDS011;18869;55.970;37.502;2023-06-14T02:13:06;16.13;;;9.27;;
32407;SDS011;18869;55.970;37.502;2023-06-14T02:15:34;12.40;;;7.97;;
32407;SDS011;18869;55.970;37.502;2023-06-14T02:18:03;12.30;;;7.73;;
32407;SDS011;18869;55.970;37.502;2023-06-14T02:20:32;10.90;;;7.23;;
32407;SDS011;18869;55.970;37.502;2023-06-14T02:23:00;10.50;;;7.13;;
32407;SDS011;18869;55.970;37.502;2023-06-14T02:25:30;7.30;;;5.87;;
32407;SDS011;18869;55.970;37.502;2023-06-14T02:27:58;8.80;;;6.80;;
32407;SDS011;18869;55.970;37.502;2023-06-14T02:30:27;9.13;;;6.23;;
32407;SDS011;18869;55.970;37.502;2023-06-14T02:32:56;7.93;;;6.13;;
32407;SDS011;18869;55.970;37.502;2023-06-14T02:35:25;7.50;;;5.27;;
32407;SDS011;18869;55.970;37.502;2023-06-14T02:37:53;9.50;;;6.30;;
32407;SDS011;18869;55.970;37.502;2023-06-14T02:40:22;10.47;;;5.67;;
32407;SDS011;18869;55.970;37.502;2023-06-14T02:42:51;7.00;;;4.90;;
32407;SDS011;18869;55.970;37.502;2023-06-14T02:45:19;8.93;;;5.33;;
32407;SDS011;18869;55.970;37.502;2023-06-14T02:47:48;7.30;;;5.40;;
32407;SDS011;18869;55.970;37.502;2023-06-14T02:50:16;8.10;;;5.03;;
32407;SDS011;18869;55.970;37.502;2023-06-14T02:52:44;6.67;;;5.43;;
32407;SDS011;18869;55.970;37.502;2023-06-14T02:55:14;5.00;;;4.50;;
32407;SDS011;18869;55.970;37.502;2023-06-14T02:57:42;7.90;;;5.47;;
32407;SDS011;18869;55.970;37.502;2023-06-14T03:00:11;6.63;;;5.20;;
32407;SDS011;18869;55.970;37.502;2023-06-14T03:02:40;6.27;;;5.23;;
32407;SDS011;18869;55.970;37.502;2023-06-14T03:05:12;5.73;;;5.00;;
32407;SDS011;18869;55.970;37.502;2023-06-14T03:07:40;7.10;;;4.77;;
32407;SDS011;18869;55.970;37.502;2023-06-14T03:10:11;8.63;;;4.90;;
32407;SDS011;18869;55.970;37.502;2023-06-14T03:12:39;9.23;;;4.53;;
32407;SDS011;18869;55.970;37.502;2023-06-14T03:15:08;6.33;;;5.53;;
32407;SDS011;18869;55.970;37.502;2023-06-14T03:17:38;5.53;;;4.43;;
32407;SDS011;18869;55.970;37.502;2023-06-14T03:20:07;5.27;;;4.23;;
32407;SDS011;18869;55.970;37.502;2023-06-14T03:22:37;6.87;;;4.50;;
32407;SDS011;18869;55.970;37.502;2023-06-14T03:25:06;6.63;;;4.67;;
32407;SDS011;18869;55.970;37.502;2023-06-14T03:27:35;5.83;;;4.30;;
32407;SDS011;18869;55.970;37.502;2023-06-14T03:30:04;7.17;;;4.77;;
32407;SDS011;18869;55.970;37.502;2023-06-14T03:32:34;5.85;;;4.10;;
32407;SDS011;18869;55.970;37.502;2023-06-14T03:35:02;7.47;;;4.60;;
32407;SDS011;18869;55.970;37.502;2023-06-14T03:37:32;6.10;;;4.70;;
32407;SDS011;18869;55.970;37.502;2023-06-14T03:40:02;8.93;;;4.90;;
32407;SDS011;18869;55.970;37.502;2023-06-14T03:42:33;6.97;;;4.07;;
32407;SDS011;18869;55.970;37.502;2023-06-14T03:45:01;4.80;;;4.40;;
32407;SDS011;18869;55.970;37.502;2023-06-14T03:47:30;9.33;;;4.43;;
32407;SDS011;18869;55.970;37.502;2023-06-14T03:49:58;4.50;;;4.10;;
32407;SDS011;18869;55.970;37.502;2023-06-14T03:52:26;9.43;;;4.60;;
32407;SDS011;18869;55.970;37.502;2023-06-14T03:54:54;8.27;;;4.50;;
32407;SDS011;18869;55.970;37.502;2023-06-14T03:57:23;5.43;;;4.40;;
32407;SDS011;18869;55.970;37.502;2023-06-14T03:59:53;5.47;;;4.83;;
32407;SDS011;18869;55.970;37.502;2023-06-14T04:02:21;6.17;;;4.53;;
32407;SDS011;18869;55.970;37.502;2023-06-14T04:04:51;5.57;;;4.13;;
32407;SDS011;18869;55.970;37.502;2023-06-14T04:07:20;6.80;;;4.20;;
32407;SDS011;18869;55.970;37.502;2023-06-14T04:09:48;14.03;;;4.60;;
32407;SDS011;18869;55.970;37.502;2023-06-14T04:12:17;9.10;;;4.50;;
32407;SDS011;18869;55.970;37.502;2023-06-14T04:14:47;9.60;;;5.00;;
32407;SDS011;18869;55.970;37.502;2023-06-14T04:17:15;7.87;;;5.00;;
32407;SDS011;18869;55.970;37.502;2023-06-14T04:19:45;5.40;;;4.43;;
32407;SDS011;18869;55.970;37.502;2023-06-14T04:22:13;8.40;;;4.63;;
32407;SDS011;18869;55.970;37.502;2023-06-14T04:24:41;10.10;;;4.10;;
32407;SDS011;18869;55.970;37.502;2023-06-14T04:27:11;8.67;;;3.93;;
32407;SDS011;18869;55.970;37.502;2023-06-14T04:29:40;7.23;;;4.33;;
32407;SDS011;18869;55.970;37.502;2023-06-14T04:32:11;6.13;;;4.43;;
32407;SDS011;18869;55.970;37.502;2023-06-14T04:34:41;6.03;;;3.80;;
32407;SDS011;18869;55.970;37.502;2023-06-14T04:37:10;5.03;;;3.93;;
32407;SDS011;18869;55.970;37.502;2023-06-14T04:39:39;3.97;;;3.57;;
32407;SDS011;18869;55.970;37.502;2023-06-14T04:42:09;7.83;;;4.13;;
32407;SDS011;18869;55.970;37.502;2023-06-14T04:44:38;5.37;;;3.93;;
32407;SDS011;18869;55.970;37.502;2023-06-14T04:47:06;5.67;;;4.07;;
32407;SDS011;18869;55.970;37.502;2023-06-14T04:49:37;7.37;;;3.73;;
32407;SDS011;18869;55.970;37.502;2023-06-14T04:52:06;4.10;;;3.10;;
32407;SDS011;18869;55.970;37.502;2023-06-14T04:54:39;4.67;;;3.57;;
32407;SDS011;18869;55.970;37.502;2023-06-14T04:57:08;7.00;;;3.97;;
32407;SDS011;18869;55.970;37.502;2023-06-14T04:59:41;6.10;;;3.37;;
32407;SDS011;18869;55.970;37.502;2023-06-14T05:02:09;7.80;;;3.47;;
32407;SDS011;18869;55.970;37.502;2023-06-14T05:04:39;3.93;;;3.13;;
32407;SDS011;18869;55.970;37.502;2023-06-14T05:07:07;4.33;;;3.40;;
32407;SDS011;18869;55.970;37.502;2023-06-14T05:09:36;7.43;;;3.33;;
32407;SDS011;18869;55.970;37.502;2023-06-14T05:12:05;5.33;;;3.40;;
32407;SDS011;18869;55.970;37.502;2023-06-14T05:14:37;3.50;;;3.20;;
32407;SDS011;18869;55.970;37.502;2023-06-14T05:17:05;5.40;;;3.17;;
32407;SDS011;18869;55.970;37.502;2023-06-14T05:19:34;3.73;;;3.30;;
32407;SDS011;18869;55.970;37.502;2023-06-14T05:22:04;5.53;;;3.70;;
32407;SDS011;18869;55.970;37.502;2023-06-14T05:24:32;4.93;;;3.33;;
32407;SDS011;18869;55.970;37.502;2023-06-14T05:27:00;4.67;;;3.30;;
32407;SDS011;18869;55.970;37.502;2023-06-14T05:29:28;5.23;;;3.37;;
32407;SDS011;18869;55.970;37.502;2023-06-14T05:31:56;4.73;;;3.30;;
32407;SDS011;18869;55.970;37.502;2023-06-14T05:34:24;8.33;;;3.83;;
32407;SDS011;18869;55.970;37.502;2023-06-14T05:36:52;6.50;;;3.40;;
32407;SDS011;18869;55.970;37.502;2023-06-14T05:39:22;3.73;;;2.90;;
32407;SDS011;18869;55.970;37.502;2023-06-14T05:41:51;4.13;;;3.10;;
32407;SDS011;18869;55.970;37.502;2023-06-14T05:44:19;4.43;;;3.23;;
32407;SDS011;18869;55.970;37.502;2023-06-14T05:46:47;4.30;;;3.20;;
32407;SDS011;18869;55.970;37.502;2023-06-14T05:49:14;4.50;;;2.47;;
32407;SDS011;18869;55.970;37.502;2023-06-14T05:51:43;5.10;;;2.47;;
32407;SDS011;18869;55.970;37.502;2023-06-14T05:54:11;2.90;;;2.60;;
32407;SDS011;18869;55.970;37.502;2023-06-14T05:56:40;4.57;;;2.33;;
32407;SDS011;18869;55.970;37.502;2023-06-14T05:59:08;20.93;;;4.63;;
32407;SDS011;18869;55.970;37.502;2023-06-14T06:01:36;4.03;;;2.70;;
32407;SDS011;18869;55.970;37.502;2023-06-14T06:04:06;9.37;;;2.70;;
32407;SDS011;18869;55.970;37.502;2023-06-14T06:06:34;3.37;;;2.50;;
32407;SDS011;18869;55.970;37.502;2023-06-14T06:09:02;3.40;;;2.30;;
32407;SDS011;18869;55.970;37.502;2023-06-14T06:11:31;2.97;;;2.67;;
32407;SDS011;18869;55.970;37.502;2023-06-14T06:14:01;3.23;;;2.10;;
32407;SDS011;18869;55.970;37.502;2023-06-14T06:16:29;2.77;;;2.13;;
32407;SDS011;18869;55.970;37.502;2023-06-14T06:18:57;4.23;;;2.33;;
32407;SDS011;18869;55.970;37.502;2023-06-14T06:21:25;3.90;;;2.30;;
32407;SDS011;18869;55.970;37.502;2023-06-14T06:23:53;2.70;;;2.17;;
32407;SDS011;18869;55.970;37.502;2023-06-14T06:26:21;3.60;;;2.00;;
32407;SDS011;18869;55.970;37.502;2023-06-14T06:28:49;2.47;;;1.98;;
32407;SDS011;18869;55.970;37.502;2023-06-14T06:31:18;3.12;;;2.00;;
32407;SDS011;18869;55.970;37.502;2023-06-14T06:33:48;2.08;;;1.80;;
32407;SDS011;18869;55.970;37.502;2023-06-14T06:36:16;2.12;;;1.80;;
32407;SDS011;18869;55.970;37.502;2023-06-14T06:38:44;5.72;;;2.00;;
32407;SDS011;18869;55.970;37.502;2023-06-14T06:41:12;3.33;;;1.90;;
32407;SDS011;18869;55.970;37.502;2023-06-14T06:43:42;2.15;;;1.62;;
32407;SDS011;18869;55.970;37.502;2023-06-14T06:46:12;4.00;;;2.17;;
32407;SDS011;18869;55.970;37.502;2023-06-14T06:48:42;3.28;;;1.90;;
32407;SDS011;18869;55.970;37.502;2023-06-14T06:51:13;1.45;;;1.33;;
32407;SDS011;18869;55.970;37.502;2023-06-14T06:53:42;2.40;;;1.62;;
32407;SDS011;18869;55.970;37.502;2023-06-14T06:56:10;2.85;;;1.92;;
32407;SDS011;18869;55.970;37.502;2023-06-14T06:58:38;3.20;;;1.73;;
32407;SDS011;18869;55.970;37.502;2023-06-14T07:01:07;1.83;;;1.67;;
32407;SDS011;18869;55.970;37.502;2023-06-14T07:03:35;2.33;;;1.70;;
32407;SDS011;18869;55.970;37.502;2023-06-14T07:06:04;3.20;;;1.52;;
32407;SDS011;18869;55.970;37.502;2023-06-14T07:08:32;2.30;;;2.00;;
32407;SDS011;18869;55.970;37.502;2023-06-14T07:11:00;1.95;;;1.80;;
32407;SDS011;18869;55.970;37.502;2023-06-14T07:13:28;2.47;;;1.65;;
32407;SDS011;18869;55.970;37.502;2023-06-14T07:15:57;10.13;;;2.25;;
32407;SDS011;18869;55.970;37.502;2023-06-14T07:18:28;3.28;;;2.12;;
32407;SDS011;18869;55.970;37.502;2023-06-14T07:20:57;4.55;;;2.03;;
32407;SDS011;18869;55.970;37.502;2023-06-14T07:23:28;2.67;;;1.87;;
32407;SDS011;18869;55.970;37.502;2023-06-14T07:25:57;3.95;;;1.77;;
32407;SDS011;18869;55.970;37.502;2023-06-14T07:28:25;5.18;;;1.70;;
32407;SDS011;18869;55.970;37.502;2023-06-14T07:30:53;3.50;;;1.73;;
32407;SDS011;18869;55.970;37.502;2023-06-14T07:33:22;2.95;;;1.80;;
32407;SDS011;18869;55.970;37.502;2023-06-14T07:35:49;3.40;;;2.05;;
32407;SDS011;18869;55.970;37.502;2023-06-14T07:38:18;3.97;;;1.90;;
32407;SDS011;18869;55.970;37.502;2023-06-14T07:40:48;1.73;;;1.62;;
32407;SDS011;18869;55.970;37.502;2023-06-14T07:43:16;3.60;;;2.17;;
32407;SDS011;18869;55.970;37.502;2023-06-14T07:45:44;2.97;;;2.05;;
32407;SDS011;18869;55.970;37.502;2023-06-14T07:48:13;1.98;;;1.62;;
32407;SDS011;18869;55.970;37.502;2023-06-14T07:50:40;2.22;;;1.87;;
32407;SDS011;18869;55.970;37.502;2023-06-14T07:53:09;5.45;;;2.15;;
32407;SDS011;18869;55.970;37.502;2023-06-14T07:55:37;2.28;;;2.08;;
32407;SDS011;18869;55.970;37.502;2023-06-14T07:58:07;2.00;;;1.90;;
32407;SDS011;18869;55.970;37.502;2023-06-14T08:00:35;4.68;;;1.70;;
32407;SDS011;18869;55.970;37.502;2023-06-14T08:03:03;7.07;;;2.03;;
32407;SDS011;18869;55.970;37.502;2023-06-14T08:05:31;2.75;;;2.00;;
32407;SDS011;18869;55.970;37.502;2023-06-14T08:08:00;1.70;;;1.60;;
32407;SDS011;18869;55.970;37.502;2023-06-14T08:10:28;5.18;;;1.77;;
32407;SDS011;18869;55.970;37.502;2023-06-14T08:12:56;2.17;;;2.03;;
32407;SDS011;18869;55.970;37.502;2023-06-14T08:15:25;2.60;;;2.20;;
32407;SDS011;18869;55.970;37.502;2023-06-14T08:17:54;3.15;;;1.95;;
32407;SDS011;18869;55.970;37.502;2023-06-14T08:20:22;3.03;;;1.83;;
32407;SDS011;18869;55.970;37.502;2023-06-14T08:22:51;3.87;;;2.30;;
32407;SDS011;18869;55.970;37.502;2023-06-14T08:25:21;2.85;;;1.60;;
32407;SDS011;18869;55.970;37.502;2023-06-14T08:27:49;2.30;;;2.10;;
32407;SDS011;18869;55.970;37.502;2023-06-14T08:30:17;2.03;;;1.75;;
32407;SDS011;18869;55.970;37.502;2023-06-14T08:32:46;3.90;;;3.47;;
32407;SDS011;18869;55.970;37.502;2023-06-14T08:35:15;3.45;;;2.15;;
32407;SDS011;18869;55.970;37.502;2023-06-14T08:37:44;2.10;;;1.90;;
32407;SDS011;18869;55.970;37.502;2023-06-14T08:40:16;2.80;;;2.08;;
32407;SDS011;18869;55.970;37.502;2023-06-14T08:42:47;2.30;;;2.08;;
32407;SDS011;18869;55.970;37.502;2023-06-14T08:45:19;2.30;;;2.10;;
32407;SDS011;18869;55.970;37.502;2023-06-14T08:47:49;2.85;;;2.00;;
32407;SDS011;18869;55.970;37.502;2023-06-14T08:50:21;3.83;;;2.17;;
32407;SDS011;18869;55.970;37.502;2023-06-14T08:52:53;2.40;;;2.20;;
32407;SDS011;18869;55.970;37.502;2023-06-14T08:55:23;3.45;;;1.92;;
32407;SDS011;18869;55.970;37.502;2023-06-14T08:57:53;2.10;;;1.80;;
32407;SDS011;18869;55.970;37.502;2023-06-14T09:00:21;2.60;;;2.28;;
32407;SDS011;18869;55.970;37.502;2023-06-14T09:02:52;2.35;;;2.15;;
32407;SDS011;18869;55.970;37.502;2023-06-14T09:05:23;1.90;;;1.80;;
32407;SDS011;18869;55.970;37.502;2023-06-14T09:07:53;4.62;;;2.20;;
32407;SDS011;18869;55.970;37.502;2023-06-14T09:10:22;2.10;;;1.90;;
32407;SDS011;18869;55.970;37.502;2023-06-14T09:12:51;2.33;;;1.75;;
32407;SDS011;18869;55.970;37.502;2023-06-14T09:15:19;2.28;;;2.08;;
32407;SDS011;18869;55.970;37.502;2023-06-14T09:17:48;2.55;;;2.35;;
32407;SDS011;18869;55.970;37.502;2023-06-14T09:20:18;5.47;;;2.40;;
32407;SDS011;18869;55.970;37.502;2023-06-14T09:22:46;2.92;;;2.20;;
32407;SDS011;18869;55.970;37.502;2023-06-14T09:25:14;2.42;;;2.22;;
32407;SDS011;18869;55.970;37.502;2023-06-14T09:27:45;2.53;;;1.87;;
32407;SDS011;18869;55.970;37.502;2023-06-14T09:30:15;3.87;;;2.20;;
32407;SDS011;18869;55.970;37.502;2023-06-14T09:32:42;6.80;;;2.50;;
32407;SDS011;18869;55.970;37.502;2023-06-14T09:35:11;2.20;;;2.00;;
32407;SDS011;18869;55.970;37.502;2023-06-14T09:37:41;2.60;;;2.40;;
32407;SDS011;18869;55.970;37.502;2023-06-14T09:40:09;2.62;;;2.17;;
32407;SDS011;18869;55.970;37.502;2023-06-14T09:42:37;3.95;;;2.42;;
32407;SDS011;18869;55.970;37.502;2023-06-14T09:45:07;4.60;;;2.47;;
32407;SDS011;18869;55.970;37.502;2023-06-14T09:47:37;3.90;;;2.20;;
32407;SDS011;18869;55.970;37.502;2023-06-14T09:50:07;3.53;;;2.22;;
32407;SDS011;18869;55.970;37.502;2023-06-14T09:52:35;4.18;;;2.35;;
32407;SDS011;18869;55.970;37.502;2023-06-14T09:55:06;8.25;;;2.12;;
32407;SDS011;18869;55.970;37.502;2023-06-14T09:57:41;4.47;;;2.78;;
32407;SDS011;18869;55.970;37.502;2023-06-14T10:00:10;2.50;;;2.25;;
32407;SDS011;18869;55.970;37.502;2023-06-14T10:02:41;2.58;;;2.35;;
32407;SDS011;18869;55.970;37.502;2023-06-14T10:05:14;3.50;;;2.17;;
32407;SDS011;18869;55.970;37.502;2023-06-14T10:07:44;3.78;;;2.37;;
32407;SDS011;18869;55.970;37.502;2023-06-14T10:10:17;3.20;;;2.20;;
32407;SDS011;18869;55.970;37.502;2023-06-14T10:12:45;2.58;;;2.35;;
32407;SDS011;18869;55.970;37.502;2023-06-14T10:15:15;2.45;;;1.92;;
32407;SDS011;18869;55.970;37.502;2023-06-14T10:17:48;2.30;;;2.10;;
32407;SDS011;18869;55.970;37.502;2023-06-14T10:20:24;3.67;;;2.50;;
32407;SDS011;18869;55.970;37.502;2023-06-14T10:22:56;7.20;;;2.90;;
32407;SDS011;18869;55.970;37.502;2023-06-14T10:25:29;2.63;;;2.40;;
32407;SDS011;18869;55.970;37.502;2023-06-14T10:28:02;2.97;;;1.90;;
32407;SDS011;18869;55.970;37.502;2023-06-14T10:30:31;3.27;;;2.53;;
32407;SDS011;18869;55.970;37.502;2023-06-14T10:33:03;3.07;;;2.17;;
32407;SDS011;18869;55.970;37.502;2023-06-14T10:35:31;4.13;;;2.40;;
32407;SDS011;18869;55.970;37.502;2023-06-14T10:38:06;2.90;;;2.27;;
32407;SDS011;18869;55.970;37.502;2023-06-14T10:40:36;3.40;;;2.23;;
32407;SDS011;18869;55.970;37.502;2023-06-14T10:48:50;3.80;;;2.30;;
32407;SDS011;18869;55.970;37.502;2023-06-14T10:51:24;2.67;;;2.15;;
32407;SDS011;18869;55.970;37.502;2023-06-14T10:53:58;2.53;;;2.27;;
32407;SDS011;18869;55.970;37.502;2023-06-14T10:56:28;3.20;;;2.30;;
32407;SDS011;18869;55.970;37.502;2023-06-14T10:58:57;5.43;;;1.93;;
32407;SDS011;18869;55.970;37.502;2023-06-14T11:01:37;3.03;;;2.37;;
32407;SDS011;18869;55.970;37.502;2023-06-14T11:04:14;2.73;;;2.10;;
32407;SDS011;18869;55.970;37.502;2023-06-14T11:06:50;4.03;;;1.87;;
32407;SDS011;18869;55.970;37.502;2023-06-14T11:09:37;3.47;;;2.17;;
32407;SDS011;18869;55.970;37.502;2023-06-14T11:12:14;5.53;;;2.20;;
32407;SDS011;18869;55.970;37.502;2023-06-14T11:14:45;3.97;;;2.47;;
32407;SDS011;18869;55.970;37.502;2023-06-14T11:17:13;5.17;;;2.40;;
32407;SDS011;18869;55.970;37.502;2023-06-14T11:19:41;3.70;;;2.37;;
32407;SDS011;18869;55.970;37.502;2023-06-14T11:22:10;3.55;;;2.40;;
32407;SDS011;18869;55.970;37.502;2023-06-14T11:24:37;3.67;;;2.50;;
32407;SDS011;18869;55.970;37.502;2023-06-14T11:27:05;3.50;;;2.57;;
32407;SDS011;18869;55.970;37.502;2023-06-14T11:29:36;3.83;;;2.40;;
32407;SDS011;18869;55.970;37.502;2023-06-14T11:32:06;3.77;;;1.93;;
32407;SDS011;18869;55.970;37.502;2023-06-14T11:34:38;9.07;;;2.37;;
32407;SDS011;18869;55.970;37.502;2023-06-14T11:37:06;2.77;;;2.17;;
32407;SDS011;18869;55.970;37.502;2023-06-14T11:39:34;3.83;;;2.60;;
32407;SDS011;18869;55.970;37.502;2023-06-14T11:42:04;2.40;;;1.90;;
32407;SDS011;18869;55.970;37.502;2023-06-14T11:44:33;5.03;;;2.17;;
32407;SDS011;18869;55.970;37.502;2023-06-14T11:47:04;4.13;;;2.50;;
32407;SDS011;18869;55.970;37.502;2023-06-14T11:49:35;4.07;;;1.97;;
32407;SDS011;18869;55.970;37.502;2023-06-14T11:52:03;3.10;;;2.50;;
32407;SDS011;18869;55.970;37.502;2023-06-14T11:54:31;2.87;;;2.30;;
32407;SDS011;18869;55.970;37.502;2023-06-14T11:56:59;10.57;;;3.20;;
32407;SDS011;18869;55.970;37.502;2023-06-14T11:59:28;5.77;;;2.70;;
32407;SDS011;18869;55.970;37.502;2023-06-14T12:01:56;3.63;;;2.20;;
32407;SDS011;18869;55.970;37.502;2023-06-14T12:04:27;3.10;;;2.43;;
32407;SDS011;18869;55.970;37.502;2023-06-14T12:06:55;4.20;;;2.40;;
32407;SDS011;18869;55.970;37.502;2023-06-14T12:09:24;4.57;;;2.33;;
32407;SDS011;18869;55.970;37.502;2023-06-14T12:11:59;3.60;;;2.30;;
32407;SDS011;18869;55.970;37.502;2023-06-14T12:14:29;4.67;;;2.33;;
32407;SDS011;18869;55.970;37.502;2023-06-14T12:17:03;4.67;;;2.97;;
32407;SDS011;18869;55.970;37.502;2023-06-14T12:19:34;2.57;;;2.27;;
32407;SDS011;18869;55.970;37.502;2023-06-14T12:22:09;8.37;;;2.50;;
32407;SDS011;18869;55.970;37.502;2023-06-14T12:24:37;8.00;;;2.57;;
32407;SDS011;18869;55.970;37.502;2023-06-14T12:27:07;2.87;;;2.50;;
32407;SDS011;18869;55.970;37.502;2023-06-14T12:29:38;3.43;;;2.30;;
32407;SDS011;18869;55.970;37.502;2023-06-14T12:32:08;2.50;;;2.30;;
32407;SDS011;18869;55.970;37.502;2023-06-14T12:34:38;4.67;;;2.03;;
32407;SDS011;18869;55.970;37.502;2023-06-14T12:37:08;5.03;;;2.30;;
32407;SDS011;18869;55.970;37.502;2023-06-14T12:39:37;3.90;;;2.63;;
32407;SDS011;18869;55.970;37.502;2023-06-14T12:42:10;3.70;;;2.50;;
32407;SDS011;18869;55.970;37.502;2023-06-14T12:44:39;3.90;;;2.73;;
32407;SDS011;18869;55.970;37.502;2023-06-14T12:47:09;3.40;;;2.13;;
32407;SDS011;18869;55.970;37.502;2023-06-14T12:49:39;2.83;;;2.30;;
32407;SDS011;18869;55.970;37.502;2023-06-14T12:52:08;4.77;;;2.30;;
32407;SDS011;18869;55.970;37.502;2023-06-14T12:54:36;3.43;;;2.37;;
32407;SDS011;18869;55.970;37.502;2023-06-14T12:57:05;3.13;;;2.47;;
32407;SDS011;18869;55.970;37.502;2023-06-14T12:59:34;2.60;;;2.20;;
32407;SDS011;18869;55.970;37.502;2023-06-14T13:02:12;5.20;;;2.47;;
32407;SDS011;18869;55.970;37.502;2023-06-14T13:04:44;3.77;;;2.60;;
32407;SDS011;18869;55.970;37.502;2023-06-14T13:07:11;4.23;;;2.30;;
32407;SDS011;18869;55.970;37.502;2023-06-14T13:09:41;3.57;;;2.57;;
32407;SDS011;18869;55.970;37.502;2023-06-14T13:12:10;6.03;;;3.00;;
32407;SDS011;18869;55.970;37.502;2023-06-14T13:14:39;2.70;;;2.50;;
32407;SDS011;18869;55.970;37.502;2023-06-14T13:17:07;2.50;;;2.20;;
32407;SDS011;18869;55.970;37.502;2023-06-14T13:19:35;11.77;;;3.40;;
32407;SDS011;18869;55.970;37.502;2023-06-14T13:22:07;4.23;;;2.23;;
32407;SDS011;18869;55.970;37.502;2023-06-14T13:24:37;6.63;;;2.67;;
32407;SDS011;18869;55.970;37.502;2023-06-14T13:27:05;3.30;;;2.50;;
32407;SDS011;18869;55.970;37.502;2023-06-14T13:29:35;5.23;;;2.70;;
32407;SDS011;18869;55.970;37.502;2023-06-14T13:32:06;4.07;;;2.87;;
32407;SDS011;18869;55.970;37.502;2023-06-14T13:34:34;3.40;;;2.37;;
32407;SDS011;18869;55.970;37.502;2023-06-14T13:37:02;4.73;;;2.10;;
32407;SDS011;18869;55.970;37.502;2023-06-14T13:39:32;7.13;;;2.53;;
32407;SDS011;18869;55.970;37.502;2023-06-14T13:41:59;2.60;;;2.27;;
32407;SDS011;18869;55.970;37.502;2023-06-14T13:44:27;4.47;;;2.33;;
32407;SDS011;18869;55.970;37.502;2023-06-14T13:46:55;3.00;;;2.13;;
32407;SDS011;18869;55.970;37.502;2023-06-14T13:49:23;7.83;;;2.40;;
32407;SDS011;18869;55.970;37.502;2023-06-14T13:51:51;2.30;;;2.10;;
32407;SDS011;18869;55.970;37.502;2023-06-14T13:54:19;6.47;;;2.57;;
32407;SDS011;18869;55.970;37.502;2023-06-14T13:56:48;3.27;;;2.50;;
32407;SDS011;18869;55.970;37.502;2023-06-14T13:59:17;4.40;;;2.20;;
32407;SDS011;18869;55.970;37.502;2023-06-14T14:01:45;3.93;;;2.40;;
32407;SDS011;18869;55.970;37.502;2023-06-14T14:04:13;3.33;;;2.40;;
32407;SDS011;18869;55.970;37.502;2023-06-14T14:06:41;5.47;;;3.20;;
32407;SDS011;18869;55.970;37.502;2023-06-14T14:09:09;3.40;;;2.77;;
32407;SDS011;18869;55.970;37.502;2023-06-14T14:11:37;2.93;;;2.60;;
32407;SDS011;18869;55.970;37.502;2023-06-14T14:14:09;5.53;;;2.60;;
32407;SDS011;18869;55.970;37.502;2023-06-14T14:16:37;4.40;;;2.90;;
32407;SDS011;18869;55.970;37.502;2023-06-14T14:19:05;4.23;;;2.63;;
32407;SDS011;18869;55.970;37.502;2023-06-14T14:21:34;4.03;;;2.80;;
32407;SDS011;18869;55.970;37.502;2023-06-14T14:24:03;3.10;;;2.63;;
32407;SDS011;18869;55.970;37.502;2023-06-14T14:26:31;3.17;;;2.60;;
32407;SDS011;18869;55.970;37.502;2023-06-14T14:28:59;2.30;;;2.10;;
32407;SDS011;18869;55.970;37.502;2023-06-14T14:31:30;5.43;;;2.33;;
32407;SDS011;18869;55.970;37.502;2023-06-14T14:33:58;5.60;;;2.70;;
32407;SDS011;18869;55.970;37.502;2023-06-14T14:36:25;5.50;;;2.70;;
32407;SDS011;18869;55.970;37.502;2023-06-14T14:38:54;2.50;;;2.30;;
32407;SDS011;18869;55.970;37.502;2023-06-14T14:41:24;3.67;;;2.23;;
32407;SDS011;18869;55.970;37.502;2023-06-14T14:43:52;2.27;;;2.00;;
32407;SDS011;18869;55.970;37.502;2023-06-14T14:46:20;2.90;;;2.53;;
32407;SDS011;18869;55.970;37.502;2023-06-14T14:48:49;4.20;;;2.60;;